Agana Heights, Guam
Current Conditions -  °F | °C
As of 12:54 PM on Wednesday 26 Nov 2014 (Local Time) from PGUM Reporting Station
Few Clouds Few Clouds  
Wind Chill: 89°   Ceiling: Unl
Heat Index: 97°   Visibility: 10mi
Dew Point: 73°   Wind: 18mph
Humidity: 59%   Direction: 60°ENE
Pressure: 29.84"   Gusts: 23mph
Location:  13.47°N, 144.74°E
Report Text: PGUM 260254Z 06016G20KT 10SM FEW025 32/23 A2984 RMK AO2 SLP094 T03170228 58022
Loading
Personal Weather Stations






























Interactive Weather Map New forecast layout! Learn more

10-Day Weather Forecast

Advertisements
Track Severe Weather on mobile